sensor_id;sensor_type;location;lat;lon;timestamp;P1;durP1;ratioP1;P2;durP2;ratioP2
51560;SDS011;37654;51.262;17.058;2023-06-24T00:01:25;33.72;;;20.63;;
51560;SDS011;37654;51.262;17.058;2023-06-24T00:03:51;27.45;;;19.50;;
51560;SDS011;37654;51.262;17.058;2023-06-24T00:06:21;31.65;;;20.80;;
51560;SDS011;37654;51.262;17.058;2023-06-24T00:08:50;30.80;;;20.35;;
51560;SDS011;37654;51.262;17.058;2023-06-24T00:11:15;30.50;;;20.10;;
51560;SDS011;37654;51.262;17.058;2023-06-24T00:13:42;33.78;;;19.20;;
51560;SDS011;37654;51.262;17.058;2023-06-24T00:16:08;34.63;;;21.13;;
51560;SDS011;37654;51.262;17.058;2023-06-24T00:18:35;23.95;;;16.33;;
51560;SDS011;37654;51.262;17.058;2023-06-24T00:21:02;25.50;;;16.90;;
51560;SDS011;37654;51.262;17.058;2023-06-24T00:23:29;24.52;;;15.77;;
51560;SDS011;37654;51.262;17.058;2023-06-24T00:26:01;23.60;;;16.65;;
51560;SDS011;37654;51.262;17.058;2023-06-24T00:28:27;23.45;;;15.73;;
51560;SDS011;37654;51.262;17.058;2023-06-24T00:30:53;23.75;;;15.13;;
51560;SDS011;37654;51.262;17.058;2023-06-24T00:33:18;21.67;;;14.80;;
51560;SDS011;37654;51.262;17.058;2023-06-24T00:35:47;22.80;;;11.85;;
51560;SDS011;37654;51.262;17.058;2023-06-24T00:38:13;23.95;;;14.27;;
51560;SDS011;37654;51.262;17.058;2023-06-24T00:40:38;25.67;;;16.48;;
51560;SDS011;37654;51.262;17.058;2023-06-24T00:43:04;21.65;;;13.75;;
51560;SDS011;37654;51.262;17.058;2023-06-24T00:45:31;20.35;;;13.73;;
51560;SDS011;37654;51.262;17.058;2023-06-24T00:47:58;19.20;;;13.65;;
51560;SDS011;37654;51.262;17.058;2023-06-24T00:50:24;14.25;;;10.50;;
51560;SDS011;37654;51.262;17.058;2023-06-24T00:52:49;18.35;;;12.73;;
51560;SDS011;37654;51.262;17.058;2023-06-24T00:55:16;17.77;;;11.35;;
51560;SDS011;37654;51.262;17.058;2023-06-24T00:57:43;17.52;;;10.23;;
51560;SDS011;37654;51.262;17.058;2023-06-24T01:00:10;18.90;;;9.98;;
51560;SDS011;37654;51.262;17.058;2023-06-24T01:02:42;15.65;;;9.88;;
51560;SDS011;37654;51.262;17.058;2023-06-24T01:05:11;13.30;;;8.68;;
51560;SDS011;37654;51.262;17.058;2023-06-24T01:07:38;17.33;;;9.23;;
51560;SDS011;37654;51.262;17.058;2023-06-24T01:10:04;13.48;;;7.53;;
51560;SDS011;37654;51.262;17.058;2023-06-24T01:12:37;10.40;;;6.60;;
51560;SDS011;37654;51.262;17.058;2023-06-24T01:15:04;10.77;;;7.32;;
51560;SDS011;37654;51.262;17.058;2023-06-24T01:17:34;11.30;;;6.50;;
51560;SDS011;37654;51.262;17.058;2023-06-24T01:22:36;15.25;;;7.82;;
51560;SDS011;37654;51.262;17.058;2023-06-24T01:35:57;14.85;;;7.90;;
51560;SDS011;37654;51.262;17.058;2023-06-24T01:38:27;12.75;;;7.07;;
51560;SDS011;37654;51.262;17.058;2023-06-24T01:40:59;11.13;;;7.40;;
51560;SDS011;37654;51.262;17.058;2023-06-24T01:43:28;14.10;;;7.45;;
51560;SDS011;37654;51.262;17.058;2023-06-24T01:45:56;12.73;;;6.97;;
51560;SDS011;37654;51.262;17.058;2023-06-24T01:48:25;12.98;;;6.90;;
51560;SDS011;37654;51.262;17.058;2023-06-24T01:50:56;17.55;;;7.68;;
51560;SDS011;37654;51.262;17.058;2023-06-24T01:53:44;15.30;;;7.38;;
51560;SDS011;37654;51.262;17.058;2023-06-24T01:56:15;13.07;;;6.95;;
51560;SDS011;37654;51.262;17.058;2023-06-24T01:58:43;11.27;;;6.53;;
51560;SDS011;37654;51.262;17.058;2023-06-24T02:01:12;12.13;;;7.10;;
51560;SDS011;37654;51.262;17.058;2023-06-24T02:03:38;10.38;;;7.65;;
51560;SDS011;37654;51.262;17.058;2023-06-24T02:06:06;10.05;;;6.90;;
51560;SDS011;37654;51.262;17.058;2023-06-24T02:08:35;14.43;;;7.78;;
51560;SDS011;37654;51.262;17.058;2023-06-24T02:11:02;12.88;;;7.28;;
51560;SDS011;37654;51.262;17.058;2023-06-24T02:13:30;17.30;;;8.43;;
51560;SDS011;37654;51.262;17.058;2023-06-24T02:16:01;10.40;;;7.00;;
51560;SDS011;37654;51.262;17.058;2023-06-24T02:18:30;13.80;;;6.68;;
51560;SDS011;37654;51.262;17.058;2023-06-24T02:20:56;11.82;;;7.50;;
51560;SDS011;37654;51.262;17.058;2023-06-24T02:23:22;15.68;;;8.05;;
51560;SDS011;37654;51.262;17.058;2023-06-24T02:25:49;16.13;;;8.02;;
51560;SDS011;37654;51.262;17.058;2023-06-24T02:28:15;10.55;;;7.32;;
51560;SDS011;37654;51.262;17.058;2023-06-24T02:30:43;25.17;;;8.23;;
51560;SDS011;37654;51.262;17.058;2023-06-24T02:33:10;10.10;;;6.68;;
51560;SDS011;37654;51.262;17.058;2023-06-24T02:35:37;15.32;;;7.50;;
51560;SDS011;37654;51.262;17.058;2023-06-24T02:38:03;19.00;;;8.40;;
51560;SDS011;37654;51.262;17.058;2023-06-24T02:40:29;13.18;;;6.80;;
51560;SDS011;37654;51.262;17.058;2023-06-24T02:42:56;13.75;;;7.47;;
51560;SDS011;37654;51.262;17.058;2023-06-24T02:45:22;11.45;;;7.50;;
51560;SDS011;37654;51.262;17.058;2023-06-24T02:47:48;15.95;;;8.30;;
51560;SDS011;37654;51.262;17.058;2023-06-24T02:50:15;14.50;;;7.63;;
51560;SDS011;37654;51.262;17.058;2023-06-24T02:52:41;17.70;;;8.43;;
51560;SDS011;37654;51.262;17.058;2023-06-24T02:55:08;12.88;;;8.13;;
51560;SDS011;37654;51.262;17.058;2023-06-24T02:57:34;15.45;;;7.57;;
51560;SDS011;37654;51.262;17.058;2023-06-24T03:00:02;13.38;;;6.95;;
51560;SDS011;37654;51.262;17.058;2023-06-24T03:02:30;20.33;;;8.20;;
51560;SDS011;37654;51.262;17.058;2023-06-24T03:04:57;14.68;;;7.57;;
51560;SDS011;37654;51.262;17.058;2023-06-24T03:07:23;14.70;;;7.82;;
51560;SDS011;37654;51.262;17.058;2023-06-24T03:09:50;11.18;;;7.78;;
51560;SDS011;37654;51.262;17.058;2023-06-24T03:12:17;12.88;;;8.43;;
51560;SDS011;37654;51.262;17.058;2023-06-24T03:14:42;13.32;;;7.45;;
51560;SDS011;37654;51.262;17.058;2023-06-24T03:17:08;15.30;;;7.85;;
51560;SDS011;37654;51.262;17.058;2023-06-24T03:19:34;15.02;;;8.25;;
51560;SDS011;37654;51.262;17.058;2023-06-24T03:22:00;14.70;;;8.48;;
51560;SDS011;37654;51.262;17.058;2023-06-24T03:24:25;12.85;;;8.15;;
51560;SDS011;37654;51.262;17.058;2023-06-24T03:26:51;14.27;;;7.93;;
51560;SDS011;37654;51.262;17.058;2023-06-24T03:29:21;17.33;;;7.93;;
51560;SDS011;37654;51.262;17.058;2023-06-24T03:31:50;13.15;;;8.20;;
51560;SDS011;37654;51.262;17.058;2023-06-24T03:34:16;15.95;;;7.32;;
51560;SDS011;37654;51.262;17.058;2023-06-24T03:36:42;17.80;;;7.18;;
51560;SDS011;37654;51.262;17.058;2023-06-24T03:39:08;11.63;;;6.97;;
51560;SDS011;37654;51.262;17.058;2023-06-24T03:41:33;15.50;;;6.55;;
51560;SDS011;37654;51.262;17.058;2023-06-24T03:43:59;14.55;;;8.55;;
51560;SDS011;37654;51.262;17.058;2023-06-24T03:46:25;11.18;;;7.50;;
51560;SDS011;37654;51.262;17.058;2023-06-24T03:48:51;11.55;;;7.03;;
51560;SDS011;37654;51.262;17.058;2023-06-24T03:51:16;10.98;;;7.00;;
51560;SDS011;37654;51.262;17.058;2023-06-24T03:53:42;12.65;;;7.18;;
51560;SDS011;37654;51.262;17.058;2023-06-24T03:56:08;18.13;;;7.60;;
51560;SDS011;37654;51.262;17.058;2023-06-24T03:58:33;11.10;;;6.97;;
51560;SDS011;37654;51.262;17.058;2023-06-24T04:00:59;12.45;;;7.13;;
51560;SDS011;37654;51.262;17.058;2023-06-24T04:03:27;14.63;;;7.65;;
51560;SDS011;37654;51.262;17.058;2023-06-24T04:05:54;9.48;;;6.50;;
51560;SDS011;37654;51.262;17.058;2023-06-24T04:08:20;11.88;;;6.20;;
51560;SDS011;37654;51.262;17.058;2023-06-24T04:10:46;11.23;;;6.70;;
51560;SDS011;37654;51.262;17.058;2023-06-24T04:13:12;14.27;;;6.72;;
51560;SDS011;37654;51.262;17.058;2023-06-24T04:15:37;14.00;;;6.47;;
51560;SDS011;37654;51.262;17.058;2023-06-24T04:18:03;16.80;;;6.75;;
51560;SDS011;37654;51.262;17.058;2023-06-24T04:20:29;12.35;;;6.15;;
51560;SDS011;37654;51.262;17.058;2023-06-24T04:22:54;10.13;;;6.40;;
51560;SDS011;37654;51.262;17.058;2023-06-24T04:25:20;12.90;;;6.35;;
51560;SDS011;37654;51.262;17.058;2023-06-24T04:27:45;14.95;;;5.72;;
51560;SDS011;37654;51.262;17.058;2023-06-24T04:30:11;11.40;;;5.45;;
51560;SDS011;37654;51.262;17.058;2023-06-24T04:32:37;11.13;;;5.28;;
51560;SDS011;37654;51.262;17.058;2023-06-24T04:35:03;10.55;;;5.70;;
51560;SDS011;37654;51.262;17.058;2023-06-24T04:37:29;11.52;;;5.25;;
51560;SDS011;37654;51.262;17.058;2023-06-24T04:39:55;10.43;;;5.20;;
51560;SDS011;37654;51.262;17.058;2023-06-24T04:42:21;12.02;;;4.60;;
51560;SDS011;37654;51.262;17.058;2023-06-24T04:44:48;8.68;;;4.75;;
51560;SDS011;37654;51.262;17.058;2023-06-24T04:47:16;8.77;;;5.82;;
51560;SDS011;37654;51.262;17.058;2023-06-24T04:49:42;11.23;;;5.65;;
51560;SDS011;37654;51.262;17.058;2023-06-24T04:52:08;8.35;;;5.25;;
51560;SDS011;37654;51.262;17.058;2023-06-24T04:54:36;11.75;;;4.55;;
51560;SDS011;37654;51.262;17.058;2023-06-24T04:57:01;9.13;;;4.55;;
51560;SDS011;37654;51.262;17.058;2023-06-24T04:59:27;10.60;;;6.20;;
51560;SDS011;37654;51.262;17.058;2023-06-24T05:01:53;7.95;;;5.40;;
51560;SDS011;37654;51.262;17.058;2023-06-24T05:04:18;7.22;;;4.05;;
51560;SDS011;37654;51.262;17.058;2023-06-24T05:06:44;8.68;;;4.05;;
51560;SDS011;37654;51.262;17.058;2023-06-24T05:09:09;6.35;;;3.35;;
51560;SDS011;37654;51.262;17.058;2023-06-24T05:11:39;5.90;;;3.55;;
51560;SDS011;37654;51.262;17.058;2023-06-24T05:14:05;11.20;;;3.95;;
51560;SDS011;37654;51.262;17.058;2023-06-24T05:16:31;5.10;;;3.35;;
51560;SDS011;37654;51.262;17.058;2023-06-24T05:18:57;10.73;;;3.88;;
51560;SDS011;37654;51.262;17.058;2023-06-24T05:21:22;5.85;;;3.72;;
51560;SDS011;37654;51.262;17.058;2023-06-24T05:23:48;4.18;;;3.00;;
51560;SDS011;37654;51.262;17.058;2023-06-24T05:26:13;8.95;;;3.75;;
51560;SDS011;37654;51.262;17.058;2023-06-24T05:28:39;14.73;;;3.80;;
51560;SDS011;37654;51.262;17.058;2023-06-24T05:31:05;8.60;;;3.50;;
51560;SDS011;37654;51.262;17.058;2023-06-24T05:33:31;7.32;;;3.97;;
51560;SDS011;37654;51.262;17.058;2023-06-24T05:35:57;7.65;;;4.25;;
51560;SDS011;37654;51.262;17.058;2023-06-24T05:38:22;8.27;;;4.22;;
51560;SDS011;37654;51.262;17.058;2023-06-24T05:40:48;9.13;;;4.10;;
51560;SDS011;37654;51.262;17.058;2023-06-24T05:43:13;11.10;;;4.88;;
51560;SDS011;37654;51.262;17.058;2023-06-24T05:45:39;7.28;;;3.85;;
51560;SDS011;37654;51.262;17.058;2023-06-24T05:48:04;10.70;;;4.78;;
51560;SDS011;37654;51.262;17.058;2023-06-24T05:50:30;9.13;;;4.97;;
51560;SDS011;37654;51.262;17.058;2023-06-24T05:52:56;9.55;;;4.70;;
51560;SDS011;37654;51.262;17.058;2023-06-24T05:55:23;9.85;;;5.43;;
51560;SDS011;37654;51.262;17.058;2023-06-24T05:57:48;9.77;;;6.03;;
51560;SDS011;37654;51.262;17.058;2023-06-24T06:00:14;9.90;;;6.03;;
51560;SDS011;37654;51.262;17.058;2023-06-24T06:02:39;14.43;;;7.03;;
51560;SDS011;37654;51.262;17.058;2023-06-24T06:05:05;15.93;;;7.05;;
51560;SDS011;37654;51.262;17.058;2023-06-24T06:07:31;16.45;;;7.63;;
51560;SDS011;37654;51.262;17.058;2023-06-24T06:09:56;12.02;;;7.85;;
51560;SDS011;37654;51.262;17.058;2023-06-24T06:12:22;16.30;;;7.70;;
51560;SDS011;37654;51.262;17.058;2023-06-24T06:14:48;16.02;;;7.97;;
51560;SDS011;37654;51.262;17.058;2023-06-24T06:17:14;18.27;;;8.63;;
51560;SDS011;37654;51.262;17.058;2023-06-24T06:19:40;14.48;;;8.10;;
51560;SDS011;37654;51.262;17.058;2023-06-24T06:22:06;13.43;;;7.55;;
51560;SDS011;37654;51.262;17.058;2023-06-24T06:24:33;16.88;;;8.18;;
51560;SDS011;37654;51.262;17.058;2023-06-24T06:26:58;15.27;;;8.13;;
51560;SDS011;37654;51.262;17.058;2023-06-24T06:29:25;12.35;;;7.13;;
51560;SDS011;37654;51.262;17.058;2023-06-24T06:31:51;15.35;;;8.88;;
51560;SDS011;37654;51.262;17.058;2023-06-24T06:34:17;13.45;;;7.55;;
51560;SDS011;37654;51.262;17.058;2023-06-24T06:36:43;14.20;;;7.88;;
51560;SDS011;37654;51.262;17.058;2023-06-24T06:39:09;10.55;;;6.85;;
51560;SDS011;37654;51.262;17.058;2023-06-24T06:41:34;13.77;;;8.43;;
51560;SDS011;37654;51.262;17.058;2023-06-24T06:44:00;11.25;;;8.05;;
51560;SDS011;37654;51.262;17.058;2023-06-24T06:46:25;10.07;;;7.63;;
51560;SDS011;37654;51.262;17.058;2023-06-24T06:48:51;13.95;;;7.60;;
51560;SDS011;37654;51.262;17.058;2023-06-24T06:51:16;12.32;;;8.52;;
51560;SDS011;37654;51.262;17.058;2023-06-24T06:53:44;16.77;;;9.43;;
51560;SDS011;37654;51.262;17.058;2023-06-24T06:56:16;13.32;;;8.73;;
51560;SDS011;37654;51.262;17.058;2023-06-24T06:58:42;11.10;;;8.00;;
51560;SDS011;37654;51.262;17.058;2023-06-24T07:01:08;12.77;;;7.68;;
51560;SDS011;37654;51.262;17.058;2023-06-24T07:03:33;13.02;;;8.23;;
51560;SDS011;37654;51.262;17.058;2023-06-24T07:05:59;12.18;;;8.18;;
51560;SDS011;37654;51.262;17.058;2023-06-24T07:08:24;18.70;;;10.48;;
51560;SDS011;37654;51.262;17.058;2023-06-24T07:10:50;13.50;;;9.05;;
51560;SDS011;37654;51.262;17.058;2023-06-24T07:13:15;13.68;;;8.13;;
51560;SDS011;37654;51.262;17.058;2023-06-24T07:15:41;13.60;;;8.65;;
51560;SDS011;37654;51.262;17.058;2023-06-24T07:18:07;12.18;;;8.40;;
51560;SDS011;37654;51.262;17.058;2023-06-24T07:20:32;14.23;;;9.13;;
51560;SDS011;37654;51.262;17.058;2023-06-24T07:22:58;11.80;;;8.55;;
51560;SDS011;37654;51.262;17.058;2023-06-24T07:25:24;11.57;;;8.65;;
51560;SDS011;37654;51.262;17.058;2023-06-24T07:27:51;15.07;;;10.05;;
51560;SDS011;37654;51.262;17.058;2023-06-24T07:30:17;20.38;;;9.68;;
51560;SDS011;37654;51.262;17.058;2023-06-24T07:32:42;12.90;;;8.77;;
51560;SDS011;37654;51.262;17.058;2023-06-24T07:35:08;13.27;;;8.95;;
51560;SDS011;37654;51.262;17.058;2023-06-24T07:37:34;14.75;;;8.60;;
51560;SDS011;37654;51.262;17.058;2023-06-24T07:40:00;15.90;;;9.35;;
51560;SDS011;37654;51.262;17.058;2023-06-24T07:42:28;13.32;;;8.18;;
51560;SDS011;37654;51.262;17.058;2023-06-24T07:44:53;14.50;;;8.68;;
51560;SDS011;37654;51.262;17.058;2023-06-24T07:47:19;14.13;;;9.05;;
51560;SDS011;37654;51.262;17.058;2023-06-24T07:49:45;10.68;;;7.93;;
51560;SDS011;37654;51.262;17.058;2023-06-24T07:52:10;12.65;;;9.15;;
51560;SDS011;37654;51.262;17.058;2023-06-24T07:54:36;11.63;;;9.32;;
51560;SDS011;37654;51.262;17.058;2023-06-24T07:57:01;15.43;;;8.18;;
51560;SDS011;37654;51.262;17.058;2023-06-24T07:59:27;10.13;;;8.27;;
51560;SDS011;37654;51.262;17.058;2023-06-24T08:01:53;11.85;;;8.68;;
51560;SDS011;37654;51.262;17.058;2023-06-24T08:04:18;12.55;;;7.80;;
51560;SDS011;37654;51.262;17.058;2023-06-24T08:06:44;10.88;;;7.35;;
51560;SDS011;37654;51.262;17.058;2023-06-24T08:09:10;9.88;;;6.90;;
51560;SDS011;37654;51.262;17.058;2023-06-24T08:11:35;10.52;;;7.05;;
51560;SDS011;37654;51.262;17.058;2023-06-24T08:14:01;9.88;;;7.63;;
51560;SDS011;37654;51.262;17.058;2023-06-24T08:16:27;8.70;;;6.25;;
51560;SDS011;37654;51.262;17.058;2023-06-24T08:18:53;9.18;;;7.07;;
51560;SDS011;37654;51.262;17.058;2023-06-24T08:21:18;9.05;;;5.97;;
51560;SDS011;37654;51.262;17.058;2023-06-24T08:23:44;9.88;;;6.53;;
51560;SDS011;37654;51.262;17.058;2023-06-24T08:26:11;6.53;;;5.85;;
51560;SDS011;37654;51.262;17.058;2023-06-24T08:28:37;7.53;;;6.45;;
51560;SDS011;37654;51.262;17.058;2023-06-24T08:31:02;9.07;;;7.28;;
51560;SDS011;37654;51.262;17.058;2023-06-24T08:33:28;8.15;;;6.18;;
51560;SDS011;37654;51.262;17.058;2023-06-24T08:35:54;10.55;;;6.47;;
51560;SDS011;37654;51.262;17.058;2023-06-24T08:38:19;12.20;;;7.53;;
51560;SDS011;37654;51.262;17.058;2023-06-24T08:40:45;11.65;;;6.93;;
51560;SDS011;37654;51.262;17.058;2023-06-24T08:43:11;10.57;;;7.43;;
51560;SDS011;37654;51.262;17.058;2023-06-24T08:45:37;11.82;;;7.60;;
51560;SDS011;37654;51.262;17.058;2023-06-24T08:48:03;10.73;;;8.05;;
51560;SDS011;37654;51.262;17.058;2023-06-24T08:50:34;12.55;;;9.07;;
51560;SDS011;37654;51.262;17.058;2023-06-24T08:53:03;11.43;;;9.10;;
51560;SDS011;37654;51.262;17.058;2023-06-24T08:55:35;12.20;;;9.60;;
51560;SDS011;37654;51.262;17.058;2023-06-24T08:58:04;15.30;;;8.98;;
51560;SDS011;37654;51.262;17.058;2023-06-24T09:00:30;17.88;;;10.15;;
51560;SDS011;37654;51.262;17.058;2023-06-24T09:02:56;14.80;;;10.35;;
51560;SDS011;37654;51.262;17.058;2023-06-24T09:05:21;11.93;;;8.30;;
51560;SDS011;37654;51.262;17.058;2023-06-24T09:07:47;14.38;;;9.48;;
51560;SDS011;37654;51.262;17.058;2023-06-24T09:12:57;14.32;;;10.05;;
51560;SDS011;37654;51.262;17.058;2023-06-24T09:15:22;12.60;;;8.90;;
51560;SDS011;37654;51.262;17.058;2023-06-24T09:17:48;18.23;;;10.30;;
51560;SDS011;37654;51.262;17.058;2023-06-24T09:20:13;12.50;;;9.70;;
51560;SDS011;37654;51.262;17.058;2023-06-24T09:22:42;16.27;;;9.70;;
51560;SDS011;37654;51.262;17.058;2023-06-24T09:25:07;14.75;;;10.32;;
51560;SDS011;37654;51.262;17.058;2023-06-24T09:27:33;18.70;;;10.63;;
51560;SDS011;37654;51.262;17.058;2023-06-24T09:29:58;12.27;;;9.60;;
51560;SDS011;37654;51.262;17.058;2023-06-24T09:32:30;13.20;;;10.27;;
51560;SDS011;37654;51.262;17.058;2023-06-24T09:34:56;13.32;;;9.95;;
51560;SDS011;37654;51.262;17.058;2023-06-24T09:37:22;12.80;;;9.88;;
51560;SDS011;37654;51.262;17.058;2023-06-24T09:39:48;16.33;;;10.68;;
51560;SDS011;37654;51.262;17.058;2023-06-24T09:42:14;37.35;;;12.93;;
51560;SDS011;37654;51.262;17.058;2023-06-24T09:44:40;13.18;;;9.52;;
51560;SDS011;37654;51.262;17.058;2023-06-24T09:47:05;16.23;;;10.20;;
51560;SDS011;37654;51.262;17.058;2023-06-24T09:49:31;15.55;;;11.20;;
51560;SDS011;37654;51.262;17.058;2023-06-24T09:51:57;13.32;;;9.18;;
51560;SDS011;37654;51.262;17.058;2023-06-24T09:54:27;10.80;;;9.05;;
51560;SDS011;37654;51.262;17.058;2023-06-24T09:56:54;13.95;;;9.38;;
51560;SDS011;37654;51.262;17.058;2023-06-24T09:59:24;11.15;;;8.48;;
51560;SDS011;37654;51.262;17.058;2023-06-24T10:01:52;12.85;;;9.85;;
51560;SDS011;37654;51.262;17.058;2023-06-24T10:04:19;12.27;;;9.18;;
51560;SDS011;37654;51.262;17.058;2023-06-24T10:06:49;12.63;;;9.45;;
51560;SDS011;37654;51.262;17.058;2023-06-24T10:09:15;15.30;;;9.13;;
51560;SDS011;37654;51.262;17.058;2023-06-24T10:11:46;9.80;;;8.05;;
51560;SDS011;37654;51.262;17.058;2023-06-24T10:14:12;13.38;;;7.97;;
51560;SDS011;37654;51.262;17.058;2023-06-24T10:16:40;14.07;;;8.93;;
51560;SDS011;37654;51.262;17.058;2023-06-24T10:19:06;12.18;;;8.02;;
51560;SDS011;37654;51.262;17.058;2023-06-24T10:24:27;12.32;;;8.60;;
51560;SDS011;37654;51.262;17.058;2023-06-24T10:26:54;8.85;;;7.43;;
51560;SDS011;37654;51.262;17.058;2023-06-24T10:29:32;11.10;;;7.90;;
51560;SDS011;37654;51.262;17.058;2023-06-24T10:32:00;9.35;;;8.10;;
51560;SDS011;37654;51.262;17.058;2023-06-24T10:44:52;9.55;;;6.40;;
51560;SDS011;37654;51.262;17.058;2023-06-24T10:47:26;10.30;;;6.97;;
51560;SDS011;37654;51.262;17.058;2023-06-24T10:49:52;11.80;;;7.70;;
51560;SDS011;37654;51.262;17.058;2023-06-24T10:52:18;8.73;;;5.45;;
51560;SDS011;37654;51.262;17.058;2023-06-24T10:54:46;7.38;;;6.60;;
51560;SDS011;37654;51.262;17.058;2023-06-24T10:57:12;11.20;;;6.30;;
51560;SDS011;37654;51.262;17.058;2023-06-24T10:59:41;7.20;;;6.40;;
51560;SDS011;37654;51.262;17.058;2023-06-24T11:02:08;10.00;;;6.53;;
51560;SDS011;37654;51.262;17.058;2023-06-24T11:04:45;8.38;;;6.15;;
51560;SDS011;37654;51.262;17.058;2023-06-24T11:07:22;9.52;;;5.82;;
51560;SDS011;37654;51.262;17.058;2023-06-24T11:09:49;9.75;;;5.93;;
51560;SDS011;37654;51.262;17.058;2023-06-24T11:12:16;13.98;;;6.65;;
51560;SDS011;37654;51.262;17.058;2023-06-24T11:14:42;13.32;;;6.07;;
51560;SDS011;37654;51.262;17.058;2023-06-24T11:17:08;8.98;;;5.53;;
51560;SDS011;37654;51.262;17.058;2023-06-24T11:19:34;7.43;;;5.53;;
51560;SDS011;37654;51.262;17.058;2023-06-24T11:22:04;15.88;;;6.47;;
51560;SDS011;37654;51.262;17.058;2023-06-24T11:24:31;9.30;;;5.88;;
51560;SDS011;37654;51.262;17.058;2023-06-24T11:26:57;8.20;;;5.50;;
51560;SDS011;37654;51.262;17.058;2023-06-24T11:29:23;6.50;;;5.38;;
51560;SDS011;37654;51.262;17.058;2023-06-24T11:31:49;7.32;;;5.60;;
51560;SDS011;37654;51.262;17.058;2023-06-24T11:34:16;7.90;;;5.93;;
51560;SDS011;37654;51.262;17.058;2023-06-24T11:36:42;8.55;;;5.22;;
51560;SDS011;37654;51.262;17.058;2023-06-24T11:39:07;10.65;;;5.25;;
51560;SDS011;37654;51.262;17.058;2023-06-24T11:41:33;9.77;;;4.95;;
51560;SDS011;37654;51.262;17.058;2023-06-24T11:43:59;5.82;;;4.65;;
51560;SDS011;37654;51.262;17.058;2023-06-24T11:46:28;12.32;;;5.78;;
51560;SDS011;37654;51.262;17.058;2023-06-24T11:49:05;6.10;;;5.50;;
51560;SDS011;37654;51.262;17.058;2023-06-24T11:51:34;6.65;;;5.32;;
51560;SDS011;37654;51.262;17.058;2023-06-24T11:54:01;7.75;;;5.07;;
51560;SDS011;37654;51.262;17.058;2023-06-24T11:56:36;11.20;;;5.57;;
51560;SDS011;37654;51.262;17.058;2023-06-24T11:59:04;9.35;;;5.43;;
51560;SDS011;37654;51.262;17.058;2023-06-24T12:01:31;5.57;;;4.97;;
51560;SDS011;37654;51.262;17.058;2023-06-24T12:03:59;10.68;;;5.60;;
51560;SDS011;37654;51.262;17.058;2023-06-24T12:06:25;8.32;;;5.38;;
51560;SDS011;37654;51.262;17.058;2023-06-24T12:08:51;7.53;;;5.80;;
51560;SDS011;37654;51.262;17.058;2023-06-24T12:11:16;11.38;;;5.55;;
51560;SDS011;37654;51.262;17.058;2023-06-24T12:13:42;7.43;;;5.97;;
51560;SDS011;37654;51.262;17.058;2023-06-24T12:16:07;6.97;;;5.90;;
51560;SDS011;37654;51.262;17.058;2023-06-24T12:18:33;9.52;;;6.20;;
51560;SDS011;37654;51.262;17.058;2023-06-24T12:20:59;12.30;;;5.90;;
51560;SDS011;37654;51.262;17.058;2023-06-24T12:23:24;10.75;;;6.18;;
51560;SDS011;37654;51.262;17.058;2023-06-24T12:25:50;12.45;;;5.70;;
51560;SDS011;37654;51.262;17.058;2023-06-24T12:28:15;9.30;;;5.50;;
51560;SDS011;37654;51.262;17.058;2023-06-24T12:30:41;8.73;;;5.55;;
51560;SDS011;37654;51.262;17.058;2023-06-24T12:33:06;8.10;;;5.80;;
51560;SDS011;37654;51.262;17.058;2023-06-24T12:35:33;10.35;;;5.53;;
51560;SDS011;37654;51.262;17.058;2023-06-24T12:37:59;9.73;;;5.47;;
51560;SDS011;37654;51.262;17.058;2023-06-24T12:40:24;7.03;;;5.50;;
51560;SDS011;37654;51.262;17.058;2023-06-24T12:42:50;11.45;;;5.05;;
51560;SDS011;37654;51.262;17.058;2023-06-24T12:45:16;7.43;;;4.97;;
51560;SDS011;37654;51.262;17.058;2023-06-24T12:47:41;5.88;;;4.55;;
51560;SDS011;37654;51.262;17.058;2023-06-24T12:50:07;6.55;;;4.22;;
51560;SDS011;37654;51.262;17.058;2023-06-24T12:52:33;6.03;;;5.13;;
51560;SDS011;37654;51.262;17.058;2023-06-24T12:54:59;6.82;;;4.47;;
51560;SDS011;37654;51.262;17.058;2023-06-24T12:57:25;10.40;;;4.72;;
51560;SDS011;37654;51.262;17.058;2023-06-24T12:59:50;5.82;;;4.53;;
51560;SDS011;37654;51.262;17.058;2023-06-24T13:02:16;4.65;;;3.97;;
51560;SDS011;37654;51.262;17.058;2023-06-24T13:04:41;5.35;;;4.20;;
51560;SDS011;37654;51.262;17.058;2023-06-24T13:07:07;5.47;;;3.97;;
51560;SDS011;37654;51.262;17.058;2023-06-24T13:09:34;7.97;;;4.68;;
51560;SDS011;37654;51.262;17.058;2023-06-24T13:12:00;6.40;;;3.92;;
51560;SDS011;37654;51.262;17.058;2023-06-24T13:14:26;6.28;;;4.90;;
51560;SDS011;37654;51.262;17.058;2023-06-24T13:16:53;7.80;;;4.40;;
51560;SDS011;37654;51.262;17.058;2023-06-24T13:19:19;5.60;;;4.65;;
51560;SDS011;37654;51.262;17.058;2023-06-24T13:21:46;7.78;;;4.47;;
51560;SDS011;37654;51.262;17.058;2023-06-24T13:24:12;8.68;;;3.92;;
51560;SDS011;37654;51.262;17.058;2023-06-24T13:26:38;7.00;;;4.20;;
51560;SDS011;37654;51.262;17.058;2023-06-24T13:29:04;4.80;;;3.97;;
51560;SDS011;37654;51.262;17.058;2023-06-24T13:31:29;6.45;;;4.13;;
51560;SDS011;37654;51.262;17.058;2023-06-24T13:33:55;6.25;;;4.05;;
51560;SDS011;37654;51.262;17.058;2023-06-24T13:36:30;7.07;;;4.18;;
51560;SDS011;37654;51.262;17.058;2023-06-24T13:38:58;6.60;;;3.95;;
51560;SDS011;37654;51.262;17.058;2023-06-24T13:41:23;6.90;;;4.90;;
51560;SDS011;37654;51.262;17.058;2023-06-24T13:43:52;11.52;;;4.50;;
51560;SDS011;37654;51.262;17.058;2023-06-24T13:46:18;7.25;;;4.82;;
51560;SDS011;37654;51.262;17.058;2023-06-24T13:48:44;7.03;;;4.55;;
51560;SDS011;37654;51.262;17.058;2023-06-24T13:51:10;7.25;;;4.57;;
51560;SDS011;37654;51.262;17.058;2023-06-24T13:53:35;7.30;;;4.53;;
51560;SDS011;37654;51.262;17.058;2023-06-24T13:56:01;9.27;;;5.20;;
51560;SDS011;37654;51.262;17.058;2023-06-24T13:58:26;6.75;;;4.38;;
51560;SDS011;37654;51.262;17.058;2023-06-24T14:00:52;5.50;;;4.03;;
51560;SDS011;37654;51.262;17.058;2023-06-24T14:03:17;7.57;;;4.55;;
51560;SDS011;37654;51.262;17.058;2023-06-24T14:05:43;7.93;;;4.50;;
51560;SDS011;37654;51.262;17.058;2023-06-24T14:08:08;7.65;;;5.25;;
51560;SDS011;37654;51.262;17.058;2023-06-24T14:10:34;8.70;;;4.85;;
51560;SDS011;37654;51.262;17.058;2023-06-24T14:12:59;12.57;;;4.65;;
51560;SDS011;37654;51.262;17.058;2023-06-24T14:15:25;7.55;;;4.20;;
51560;SDS011;37654;51.262;17.058;2023-06-24T14:17:50;6.82;;;4.78;;
51560;SDS011;37654;51.262;17.058;2023-06-24T14:20:16;8.95;;;4.72;;
51560;SDS011;37654;51.262;17.058;2023-06-24T14:22:42;5.43;;;4.50;;
51560;SDS011;37654;51.262;17.058;2023-06-24T14:25:07;5.68;;;4.65;;
51560;SDS011;37654;51.262;17.058;2023-06-24T14:27:33;12.73;;;5.03;;
51560;SDS011;37654;51.262;17.058;2023-06-24T14:29:59;7.25;;;4.40;;
51560;SDS011;37654;51.262;17.058;2023-06-24T14:32:24;6.75;;;4.13;;
51560;SDS011;37654;51.262;17.058;2023-06-24T14:34:50;5.43;;;4.43;;
51560;SDS011;37654;51.262;17.058;2023-06-24T14:37:15;6.47;;;4.57;;
51560;SDS011;37654;51.262;17.058;2023-06-24T14:39:41;7.43;;;4.05;;
51560;SDS011;37654;51.262;17.058;2023-06-24T14:42:07;5.70;;;4.30;;
51560;SDS011;37654;51.262;17.058;2023-06-24T14:44:32;7.47;;;4.80;;
51560;SDS011;37654;51.262;17.058;2023-06-24T14:46:58;7.82;;;4.45;;
51560;SDS011;37654;51.262;17.058;2023-06-24T14:49:23;5.93;;;4.43;;